Batumi International Airport
UGSB : rendu visible

Aérodrome :











RETROUVEZ-NOUS SUR...

 
LOGIN :

S'inscrire | Disclaimer

   EN    FR    IT 

 









Légende :    VFR   VFR Marginal   IFR   IFR Intensif   IFR Très Intensif
Visi : 
Plafond : 
>= 8 km
>= 3000ft
5 à 8 km
1000 à 3000 ft
1500m à 5 km
500 à 1000 ft
800 à 1500m
200 à 500 ft
< 800m
< 200 ft
Symboles :   Orages  Brouillard  Fortes neiges  Fortes précipitations  Vent > 20 kt







- Altitude de l'aérodrome : 105 ft
- Code IATA : BUS


UGSB - Batumi International

DERNIER METAR :
  • 211730Z 25006KT 9999 -RA FEW016 SCT028 10/07 Q1014 R13/70D NOSIG

METARs EXPIRÉS :
  • 211700Z 26006KT 9999 FEW018 SCT030 10/07 Q1014 R13/70D NOSIG
  • 211630Z 29008KT 9999 FEW015 SCT030 10/07 Q1013 R13/CLRD70 NOSIG
  • 211600Z 29007KT 9999 SCT018 BKN040 10/07 Q1013 R13/70D NOSIG
  • 211530Z 30007KT 9999 SCT020 BKN042 10/07 Q1012 R13/70D NOSIG
  • 211500Z 27004KT 9999 SCT023 BKN038 10/07 Q1012 R13/CLRD70 NOSIG

TAF TAF UGSB
Valide du 21 à 18h jusqu'au 22 à 18h UTC


211700Z 2118/2218 24012KT 9999 -RA SCT020 BKN050 TX11/2211Z TN07/2201Z
TEMPO 2118/2203 25022KT 4000 SHRA SCT009 BKN020CB
FIR UGGG / Asie



MET'MAP, la Météo Aéronautique d'un coup d'oeil ! - Copyright ORBIFLY Décembre 2007 - Disclaimer

ORBIFLY MET'MAP TEAM :

Programmation & Développement : Alexandra Zaïnal
Conception & Développement : Baudouin d'Aumeries
Co-Programmation & Développement : Marc-Olivier Méhu
Soutien technique & logistique : Manuel Goepfert

Contact : metmap@orbifly.com




SOURCES & CREDITS :

   NOAA       Earth
Advisory